Collegeport, Texas
Current Conditions -  °F | °C
As of 3:53 PM on Sunday 25 Jan 2015 (Local Time) from KPSX Reporting Station
Clear Clear  
Wind Chill: 69°   Ceiling: Unl
Heat Index: 69°   Visibility: 10mi
Dew Point: 44°   Wind: 13mph
Humidity: 40%   Direction: 320°NW
Pressure: 30.06"   Gusts: NA
Location:  28.72°N, 96.17°W
Report Text: KPSX 252153Z AUTO 32011KT 10SM CLR 21/07 A3006 RMK AO2 SLP180 T02060067
Loading
Personal Weather Stations






























Interactive Weather Map New forecast layout! Learn more

10-Day Weather Forecast

Advertisements
Track Severe Weather on mobile